sensor_id;sensor_type;location;lat;lon;timestamp;P1;durP1;ratioP1;P2;durP2;ratioP2
22632;SDS011;11483;55.828;37.488;2023-08-07T00:00:49;13.05;;;5.32;;
22632;SDS011;11483;55.828;37.488;2023-08-07T00:03:15;9.90;;;4.57;;
22632;SDS011;11483;55.828;37.488;2023-08-07T00:05:49;10.90;;;4.82;;
22632;SDS011;11483;55.828;37.488;2023-08-07T00:08:20;11.07;;;4.55;;
22632;SDS011;11483;55.828;37.488;2023-08-07T00:10:46;9.15;;;4.55;;
22632;SDS011;11483;55.828;37.488;2023-08-07T00:13:13;10.80;;;4.82;;
22632;SDS011;11483;55.828;37.488;2023-08-07T00:15:39;11.25;;;4.32;;
22632;SDS011;11483;55.828;37.488;2023-08-07T00:18:05;10.07;;;4.20;;
22632;SDS011;11483;55.828;37.488;2023-08-07T00:20:31;7.53;;;4.80;;
22632;SDS011;11483;55.828;37.488;2023-08-07T00:22:57;7.45;;;4.80;;
22632;SDS011;11483;55.828;37.488;2023-08-07T00:25:23;17.15;;;4.47;;
22632;SDS011;11483;55.828;37.488;2023-08-07T00:27:48;11.90;;;4.25;;
22632;SDS011;11483;55.828;37.488;2023-08-07T00:30:14;6.82;;;4.68;;
22632;SDS011;11483;55.828;37.488;2023-08-07T00:32:40;11.05;;;4.60;;
22632;SDS011;11483;55.828;37.488;2023-08-07T00:35:06;8.63;;;4.57;;
22632;SDS011;11483;55.828;37.488;2023-08-07T00:37:33;7.82;;;4.70;;
22632;SDS011;11483;55.828;37.488;2023-08-07T00:39:59;8.23;;;4.47;;
22632;SDS011;11483;55.828;37.488;2023-08-07T00:42:25;10.60;;;4.55;;
22632;SDS011;11483;55.828;37.488;2023-08-07T00:44:51;9.60;;;4.68;;
22632;SDS011;11483;55.828;37.488;2023-08-07T00:47:17;7.30;;;4.72;;
22632;SDS011;11483;55.828;37.488;2023-08-07T00:49:43;10.30;;;4.43;;
22632;SDS011;11483;55.828;37.488;2023-08-07T00:52:09;8.30;;;4.50;;
22632;SDS011;11483;55.828;37.488;2023-08-07T00:54:35;10.77;;;4.70;;
22632;SDS011;11483;55.828;37.488;2023-08-07T00:57:12;7.55;;;4.30;;
22632;SDS011;11483;55.828;37.488;2023-08-07T00:59:41;9.63;;;4.55;;
22632;SDS011;11483;55.828;37.488;2023-08-07T01:02:09;11.23;;;4.10;;
22632;SDS011;11483;55.828;37.488;2023-08-07T01:04:37;11.13;;;4.35;;
22632;SDS011;11483;55.828;37.488;2023-08-07T01:07:03;13.43;;;4.72;;
22632;SDS011;11483;55.828;37.488;2023-08-07T01:09:29;10.20;;;5.05;;
22632;SDS011;11483;55.828;37.488;2023-08-07T01:14:52;11.93;;;4.63;;
22632;SDS011;11483;55.828;37.488;2023-08-07T01:17:38;13.10;;;4.57;;
22632;SDS011;11483;55.828;37.488;2023-08-07T01:20:07;7.53;;;4.28;;
22632;SDS011;11483;55.828;37.488;2023-08-07T01:22:33;12.48;;;4.43;;
22632;SDS011;11483;55.828;37.488;2023-08-07T01:24:59;6.68;;;4.78;;
22632;SDS011;11483;55.828;37.488;2023-08-07T01:27:59;9.05;;;4.70;;
22632;SDS011;11483;55.828;37.488;2023-08-07T01:35:25;12.05;;;4.85;;
22632;SDS011;11483;55.828;37.488;2023-08-07T01:37:55;8.80;;;4.57;;
22632;SDS011;11483;55.828;37.488;2023-08-07T01:40:22;10.45;;;4.65;;
22632;SDS011;11483;55.828;37.488;2023-08-07T01:42:48;12.13;;;4.90;;
22632;SDS011;11483;55.828;37.488;2023-08-07T01:45:21;9.80;;;4.30;;
22632;SDS011;11483;55.828;37.488;2023-08-07T01:47:52;8.93;;;4.68;;
22632;SDS011;11483;55.828;37.488;2023-08-07T01:50:18;17.60;;;4.60;;
22632;SDS011;11483;55.828;37.488;2023-08-07T01:52:48;11.30;;;4.50;;
22632;SDS011;11483;55.828;37.488;2023-08-07T01:55:15;10.27;;;4.65;;
22632;SDS011;11483;55.828;37.488;2023-08-07T01:57:42;13.55;;;5.25;;
22632;SDS011;11483;55.828;37.488;2023-08-07T02:00:08;10.15;;;4.45;;
22632;SDS011;11483;55.828;37.488;2023-08-07T02:02:34;5.57;;;4.20;;
22632;SDS011;11483;55.828;37.488;2023-08-07T02:05:01;10.77;;;4.85;;
22632;SDS011;11483;55.828;37.488;2023-08-07T02:07:27;5.40;;;4.05;;
22632;SDS011;11483;55.828;37.488;2023-08-07T02:09:53;14.68;;;4.43;;
22632;SDS011;11483;55.828;37.488;2023-08-07T02:12:18;5.65;;;4.35;;
22632;SDS011;11483;55.828;37.488;2023-08-07T02:14:44;10.52;;;4.65;;
22632;SDS011;11483;55.828;37.488;2023-08-07T02:17:10;8.65;;;4.22;;
22632;SDS011;11483;55.828;37.488;2023-08-07T02:19:36;8.60;;;4.43;;
22632;SDS011;11483;55.828;37.488;2023-08-07T02:22:02;8.60;;;4.63;;
22632;SDS011;11483;55.828;37.488;2023-08-07T02:24:28;10.38;;;4.63;;
22632;SDS011;11483;55.828;37.488;2023-08-07T02:26:54;14.57;;;4.97;;
22632;SDS011;11483;55.828;37.488;2023-08-07T02:29:20;11.50;;;4.75;;
22632;SDS011;11483;55.828;37.488;2023-08-07T02:31:45;12.02;;;4.45;;
22632;SDS011;11483;55.828;37.488;2023-08-07T02:34:11;9.00;;;4.80;;
22632;SDS011;11483;55.828;37.488;2023-08-07T02:36:37;8.43;;;4.30;;
22632;SDS011;11483;55.828;37.488;2023-08-07T02:39:03;9.27;;;5.38;;
22632;SDS011;11483;55.828;37.488;2023-08-07T02:41:29;8.02;;;4.32;;
22632;SDS011;11483;55.828;37.488;2023-08-07T02:43:56;9.68;;;4.45;;
22632;SDS011;11483;55.828;37.488;2023-08-07T02:46:22;15.40;;;4.90;;
22632;SDS011;11483;55.828;37.488;2023-08-07T02:48:48;9.85;;;4.40;;
22632;SDS011;11483;55.828;37.488;2023-08-07T02:51:14;12.75;;;5.07;;
22632;SDS011;11483;55.828;37.488;2023-08-07T02:53:40;9.00;;;5.07;;
22632;SDS011;11483;55.828;37.488;2023-08-07T02:56:06;13.23;;;5.38;;
22632;SDS011;11483;55.828;37.488;2023-08-07T02:58:32;10.60;;;4.68;;
22632;SDS011;11483;55.828;37.488;2023-08-07T03:01:02;15.52;;;4.57;;
22632;SDS011;11483;55.828;37.488;2023-08-07T03:03:30;11.70;;;4.95;;
22632;SDS011;11483;55.828;37.488;2023-08-07T03:05:55;8.70;;;5.18;;
22632;SDS011;11483;55.828;37.488;2023-08-07T03:08:21;9.00;;;4.85;;
22632;SDS011;11483;55.828;37.488;2023-08-07T03:10:51;6.78;;;4.47;;
22632;SDS011;11483;55.828;37.488;2023-08-07T03:13:21;14.45;;;5.30;;
22632;SDS011;11483;55.828;37.488;2023-08-07T03:15:48;13.10;;;4.65;;
22632;SDS011;11483;55.828;37.488;2023-08-07T03:18:17;9.05;;;4.80;;
22632;SDS011;11483;55.828;37.488;2023-08-07T03:20:43;9.65;;;4.97;;
22632;SDS011;11483;55.828;37.488;2023-08-07T03:23:10;22.02;;;5.40;;
22632;SDS011;11483;55.828;37.488;2023-08-07T03:25:36;14.75;;;5.13;;
22632;SDS011;11483;55.828;37.488;2023-08-07T03:28:02;6.93;;;5.03;;
22632;SDS011;11483;55.828;37.488;2023-08-07T03:30:28;11.10;;;4.82;;
22632;SDS011;11483;55.828;37.488;2023-08-07T03:32:54;12.80;;;4.68;;
22632;SDS011;11483;55.828;37.488;2023-08-07T03:35:20;13.35;;;5.05;;
22632;SDS011;11483;55.828;37.488;2023-08-07T03:37:46;15.73;;;4.97;;
22632;SDS011;11483;55.828;37.488;2023-08-07T03:40:12;10.48;;;4.82;;
22632;SDS011;11483;55.828;37.488;2023-08-07T03:42:37;11.88;;;5.68;;
22632;SDS011;11483;55.828;37.488;2023-08-07T03:45:03;10.93;;;4.63;;
22632;SDS011;11483;55.828;37.488;2023-08-07T03:47:29;9.10;;;5.25;;
22632;SDS011;11483;55.828;37.488;2023-08-07T03:49:55;11.82;;;5.55;;
22632;SDS011;11483;55.828;37.488;2023-08-07T03:52:21;14.13;;;5.97;;
22632;SDS011;11483;55.828;37.488;2023-08-07T03:54:47;13.38;;;5.55;;
22632;SDS011;11483;55.828;37.488;2023-08-07T03:57:13;9.10;;;5.07;;
22632;SDS011;11483;55.828;37.488;2023-08-07T03:59:38;11.68;;;4.63;;
22632;SDS011;11483;55.828;37.488;2023-08-07T04:02:04;10.13;;;5.20;;
22632;SDS011;11483;55.828;37.488;2023-08-07T04:04:31;13.15;;;5.10;;
22632;SDS011;11483;55.828;37.488;2023-08-07T04:06:56;12.88;;;5.15;;
22632;SDS011;11483;55.828;37.488;2023-08-07T04:09:22;12.07;;;5.20;;
22632;SDS011;11483;55.828;37.488;2023-08-07T04:11:48;11.15;;;5.15;;
22632;SDS011;11483;55.828;37.488;2023-08-07T04:14:14;11.90;;;5.47;;
22632;SDS011;11483;55.828;37.488;2023-08-07T04:16:40;13.75;;;5.32;;
22632;SDS011;11483;55.828;37.488;2023-08-07T04:19:06;8.73;;;4.70;;
22632;SDS011;11483;55.828;37.488;2023-08-07T04:21:32;9.05;;;4.60;;
22632;SDS011;11483;55.828;37.488;2023-08-07T04:23:58;7.90;;;4.68;;
22632;SDS011;11483;55.828;37.488;2023-08-07T04:26:25;10.43;;;5.50;;
22632;SDS011;11483;55.828;37.488;2023-08-07T04:28:52;13.38;;;4.68;;
22632;SDS011;11483;55.828;37.488;2023-08-07T04:31:17;12.98;;;4.97;;
22632;SDS011;11483;55.828;37.488;2023-08-07T04:33:43;14.63;;;4.60;;
22632;SDS011;11483;55.828;37.488;2023-08-07T04:36:09;12.63;;;4.35;;
22632;SDS011;11483;55.828;37.488;2023-08-07T04:38:35;9.80;;;4.07;;
22632;SDS011;11483;55.828;37.488;2023-08-07T04:41:01;12.73;;;4.53;;
22632;SDS011;11483;55.828;37.488;2023-08-07T04:43:28;9.20;;;4.30;;
22632;SDS011;11483;55.828;37.488;2023-08-07T04:45:54;9.52;;;4.18;;
22632;SDS011;11483;55.828;37.488;2023-08-07T04:48:20;11.95;;;3.55;;
22632;SDS011;11483;55.828;37.488;2023-08-07T04:50:47;11.13;;;4.50;;
22632;SDS011;11483;55.828;37.488;2023-08-07T04:53:13;4.90;;;3.83;;
22632;SDS011;11483;55.828;37.488;2023-08-07T04:55:39;8.10;;;4.30;;
22632;SDS011;11483;55.828;37.488;2023-08-07T04:58:05;10.73;;;3.88;;
22632;SDS011;11483;55.828;37.488;2023-08-07T05:00:31;11.43;;;3.47;;
22632;SDS011;11483;55.828;37.488;2023-08-07T05:02:57;11.18;;;3.80;;
22632;SDS011;11483;55.828;37.488;2023-08-07T05:05:22;17.05;;;4.03;;
22632;SDS011;11483;55.828;37.488;2023-08-07T05:07:48;5.13;;;3.75;;
22632;SDS011;11483;55.828;37.488;2023-08-07T05:10:14;16.52;;;4.00;;
22632;SDS011;11483;55.828;37.488;2023-08-07T05:12:40;20.58;;;4.20;;
22632;SDS011;11483;55.828;37.488;2023-08-07T05:15:06;6.10;;;3.05;;
22632;SDS011;11483;55.828;37.488;2023-08-07T05:17:32;14.05;;;3.90;;
22632;SDS011;11483;55.828;37.488;2023-08-07T05:19:58;14.02;;;3.88;;
22632;SDS011;11483;55.828;37.488;2023-08-07T05:22:24;10.88;;;3.50;;
22632;SDS011;11483;55.828;37.488;2023-08-07T05:24:50;7.22;;;3.40;;
22632;SDS011;11483;55.828;37.488;2023-08-07T05:27:15;6.97;;;3.17;;
22632;SDS011;11483;55.828;37.488;2023-08-07T05:29:41;10.18;;;3.50;;
22632;SDS011;11483;55.828;37.488;2023-08-07T05:32:13;9.57;;;3.28;;
22632;SDS011;11483;55.828;37.488;2023-08-07T05:34:40;8.48;;;3.10;;
22632;SDS011;11483;55.828;37.488;2023-08-07T05:37:06;5.07;;;3.22;;
22632;SDS011;11483;55.828;37.488;2023-08-07T05:39:34;5.22;;;3.28;;
22632;SDS011;11483;55.828;37.488;2023-08-07T05:42:00;11.20;;;3.78;;
22632;SDS011;11483;55.828;37.488;2023-08-07T05:44:26;12.23;;;3.65;;
22632;SDS011;11483;55.828;37.488;2023-08-07T05:46:53;4.85;;;3.00;;
22632;SDS011;11483;55.828;37.488;2023-08-07T05:49:19;8.90;;;3.42;;
22632;SDS011;11483;55.828;37.488;2023-08-07T05:51:46;11.07;;;2.97;;
22632;SDS011;11483;55.828;37.488;2023-08-07T05:54:12;18.27;;;3.72;;
22632;SDS011;11483;55.828;37.488;2023-08-07T05:56:38;8.07;;;2.92;;
22632;SDS011;11483;55.828;37.488;2023-08-07T05:59:06;5.85;;;2.97;;
22632;SDS011;11483;55.828;37.488;2023-08-07T06:01:31;12.68;;;3.45;;
22632;SDS011;11483;55.828;37.488;2023-08-07T06:03:57;6.88;;;3.20;;
22632;SDS011;11483;55.828;37.488;2023-08-07T06:06:26;9.30;;;3.38;;
22632;SDS011;11483;55.828;37.488;2023-08-07T06:08:55;7.55;;;3.42;;
22632;SDS011;11483;55.828;37.488;2023-08-07T06:11:21;6.72;;;2.85;;
22632;SDS011;11483;55.828;37.488;2023-08-07T06:13:48;12.05;;;2.88;;
22632;SDS011;11483;55.828;37.488;2023-08-07T06:16:14;15.15;;;2.78;;
22632;SDS011;11483;55.828;37.488;2023-08-07T06:18:40;18.80;;;3.20;;
22632;SDS011;11483;55.828;37.488;2023-08-07T06:21:06;7.20;;;3.25;;
22632;SDS011;11483;55.828;37.488;2023-08-07T06:23:34;7.75;;;2.70;;
22632;SDS011;11483;55.828;37.488;2023-08-07T06:26:01;8.90;;;3.33;;
22632;SDS011;11483;55.828;37.488;2023-08-07T06:28:29;5.15;;;2.83;;
22632;SDS011;11483;55.828;37.488;2023-08-07T06:31:04;15.75;;;2.95;;
22632;SDS011;11483;55.828;37.488;2023-08-07T06:33:31;9.45;;;3.00;;
22632;SDS011;11483;55.828;37.488;2023-08-07T06:35:58;7.50;;;2.95;;
22632;SDS011;11483;55.828;37.488;2023-08-07T06:38:24;9.02;;;2.78;;
22632;SDS011;11483;55.828;37.488;2023-08-07T06:40:50;4.75;;;2.63;;
22632;SDS011;11483;55.828;37.488;2023-08-07T06:43:16;14.13;;;2.60;;
22632;SDS011;11483;55.828;37.488;2023-08-07T06:45:42;7.07;;;2.50;;
22632;SDS011;11483;55.828;37.488;2023-08-07T06:48:09;7.47;;;2.83;;
22632;SDS011;11483;55.828;37.488;2023-08-07T06:50:34;8.88;;;3.10;;
22632;SDS011;11483;55.828;37.488;2023-08-07T06:53:00;15.23;;;3.10;;
22632;SDS011;11483;55.828;37.488;2023-08-07T06:55:26;16.25;;;3.35;;
22632;SDS011;11483;55.828;37.488;2023-08-07T06:57:52;6.13;;;2.85;;
22632;SDS011;11483;55.828;37.488;2023-08-07T07:00:18;8.75;;;3.22;;
22632;SDS011;11483;55.828;37.488;2023-08-07T07:02:44;15.05;;;3.20;;
22632;SDS011;11483;55.828;37.488;2023-08-07T07:05:10;10.93;;;2.80;;
22632;SDS011;11483;55.828;37.488;2023-08-07T07:07:36;13.30;;;2.88;;
22632;SDS011;11483;55.828;37.488;2023-08-07T07:10:02;13.85;;;2.70;;
22632;SDS011;11483;55.828;37.488;2023-08-07T07:12:28;8.82;;;2.55;;
22632;SDS011;11483;55.828;37.488;2023-08-07T07:14:54;7.38;;;2.88;;
22632;SDS011;11483;55.828;37.488;2023-08-07T07:17:20;19.08;;;3.83;;
22632;SDS011;11483;55.828;37.488;2023-08-07T07:19:46;18.23;;;2.92;;
22632;SDS011;11483;55.828;37.488;2023-08-07T07:22:12;11.18;;;2.58;;
22632;SDS011;11483;55.828;37.488;2023-08-07T07:24:38;11.45;;;3.00;;
22632;SDS011;11483;55.828;37.488;2023-08-07T07:27:03;9.55;;;2.60;;
22632;SDS011;11483;55.828;37.488;2023-08-07T07:29:30;10.88;;;2.83;;
22632;SDS011;11483;55.828;37.488;2023-08-07T07:31:56;10.18;;;2.58;;
22632;SDS011;11483;55.828;37.488;2023-08-07T07:34:22;2.50;;;2.20;;
22632;SDS011;11483;55.828;37.488;2023-08-07T07:36:48;7.85;;;2.80;;
22632;SDS011;11483;55.828;37.488;2023-08-07T07:39:14;6.30;;;2.42;;
22632;SDS011;11483;55.828;37.488;2023-08-07T07:41:39;3.85;;;2.50;;
22632;SDS011;11483;55.828;37.488;2023-08-07T07:44:05;11.20;;;3.00;;
22632;SDS011;11483;55.828;37.488;2023-08-07T07:46:31;8.73;;;2.83;;
22632;SDS011;11483;55.828;37.488;2023-08-07T07:48:58;9.75;;;2.60;;
22632;SDS011;11483;55.828;37.488;2023-08-07T07:51:24;11.98;;;3.17;;
22632;SDS011;11483;55.828;37.488;2023-08-07T07:53:50;10.90;;;3.03;;
22632;SDS011;11483;55.828;37.488;2023-08-07T07:56:16;6.68;;;2.63;;
22632;SDS011;11483;55.828;37.488;2023-08-07T07:58:42;9.48;;;2.60;;
22632;SDS011;11483;55.828;37.488;2023-08-07T08:01:09;4.47;;;2.35;;
22632;SDS011;11483;55.828;37.488;2023-08-07T08:03:35;4.10;;;2.22;;
22632;SDS011;11483;55.828;37.488;2023-08-07T08:06:01;12.00;;;3.05;;
22632;SDS011;11483;55.828;37.488;2023-08-07T08:08:27;17.52;;;2.63;;
22632;SDS011;11483;55.828;37.488;2023-08-07T08:10:53;9.85;;;2.90;;
22632;SDS011;11483;55.828;37.488;2023-08-07T08:13:19;13.63;;;2.80;;
22632;SDS011;11483;55.828;37.488;2023-08-07T08:15:45;10.38;;;2.50;;
22632;SDS011;11483;55.828;37.488;2023-08-07T08:18:11;11.80;;;2.80;;
22632;SDS011;11483;55.828;37.488;2023-08-07T08:20:37;5.88;;;2.72;;
22632;SDS011;11483;55.828;37.488;2023-08-07T08:23:03;10.23;;;3.05;;
22632;SDS011;11483;55.828;37.488;2023-08-07T08:25:30;16.98;;;3.15;;
22632;SDS011;11483;55.828;37.488;2023-08-07T08:27:56;4.93;;;2.70;;
22632;SDS011;11483;55.828;37.488;2023-08-07T08:30:22;8.43;;;2.78;;
22632;SDS011;11483;55.828;37.488;2023-08-07T08:32:48;12.07;;;2.90;;
22632;SDS011;11483;55.828;37.488;2023-08-07T08:35:14;7.57;;;2.47;;
22632;SDS011;11483;55.828;37.488;2023-08-07T08:37:40;11.80;;;2.70;;
22632;SDS011;11483;55.828;37.488;2023-08-07T08:40:06;8.48;;;2.60;;
22632;SDS011;11483;55.828;37.488;2023-08-07T08:42:37;12.77;;;2.90;;
22632;SDS011;11483;55.828;37.488;2023-08-07T08:45:05;8.25;;;2.63;;
22632;SDS011;11483;55.828;37.488;2023-08-07T08:47:36;9.15;;;2.33;;
22632;SDS011;11483;55.828;37.488;2023-08-07T08:50:13;11.50;;;2.90;;
22632;SDS011;11483;55.828;37.488;2023-08-07T08:52:43;2.72;;;2.15;;
22632;SDS011;11483;55.828;37.488;2023-08-07T08:55:10;11.48;;;2.47;;
22632;SDS011;11483;55.828;37.488;2023-08-07T08:57:38;17.08;;;2.47;;
22632;SDS011;11483;55.828;37.488;2023-08-07T09:00:08;8.27;;;2.17;;
22632;SDS011;11483;55.828;37.488;2023-08-07T09:02:46;12.82;;;2.47;;
22632;SDS011;11483;55.828;37.488;2023-08-07T09:05:17;10.05;;;2.50;;
22632;SDS011;11483;55.828;37.488;2023-08-07T09:07:45;5.18;;;2.28;;
22632;SDS011;11483;55.828;37.488;2023-08-07T09:10:14;3.17;;;2.35;;
22632;SDS011;11483;55.828;37.488;2023-08-07T09:12:44;10.45;;;2.25;;
22632;SDS011;11483;55.828;37.488;2023-08-07T09:15:29;16.58;;;3.00;;
22632;SDS011;11483;55.828;37.488;2023-08-07T09:17:56;15.93;;;2.58;;
22632;SDS011;11483;55.828;37.488;2023-08-07T09:20:27;15.57;;;2.30;;
22632;SDS011;11483;55.828;37.488;2023-08-07T09:22:53;9.30;;;2.47;;
22632;SDS011;11483;55.828;37.488;2023-08-07T09:25:26;7.25;;;2.30;;
22632;SDS011;11483;55.828;37.488;2023-08-07T09:27:56;17.58;;;2.47;;
22632;SDS011;11483;55.828;37.488;2023-08-07T09:30:25;5.85;;;2.00;;
22632;SDS011;11483;55.828;37.488;2023-08-07T09:32:53;9.75;;;2.10;;
22632;SDS011;11483;55.828;37.488;2023-08-07T09:35:21;7.20;;;2.42;;
22632;SDS011;11483;55.828;37.488;2023-08-07T09:37:48;5.00;;;1.90;;
22632;SDS011;11483;55.828;37.488;2023-08-07T09:40:14;2.47;;;1.75;;
22632;SDS011;11483;55.828;37.488;2023-08-07T09:42:41;5.13;;;1.70;;
22632;SDS011;11483;55.828;37.488;2023-08-07T09:47:46;7.15;;;2.08;;
22632;SDS011;11483;55.828;37.488;2023-08-07T09:50:16;2.60;;;1.80;;
22632;SDS011;11483;55.828;37.488;2023-08-07T09:52:45;12.32;;;2.17;;
22632;SDS011;11483;55.828;37.488;2023-08-07T09:55:13;4.47;;;1.90;;
22632;SDS011;11483;55.828;37.488;2023-08-07T09:57:42;4.63;;;2.05;;
22632;SDS011;11483;55.828;37.488;2023-08-07T10:00:17;7.47;;;2.00;;
22632;SDS011;11483;55.828;37.488;2023-08-07T10:02:48;3.13;;;1.77;;
22632;SDS011;11483;55.828;37.488;2023-08-07T10:05:16;3.72;;;1.67;;
22632;SDS011;11483;55.828;37.488;2023-08-07T10:07:43;5.20;;;2.42;;
22632;SDS011;11483;55.828;37.488;2023-08-07T10:10:09;3.22;;;1.85;;
22632;SDS011;11483;55.828;37.488;2023-08-07T10:12:36;10.00;;;1.73;;
22632;SDS011;11483;55.828;37.488;2023-08-07T10:15:03;9.60;;;2.33;;
22632;SDS011;11483;55.828;37.488;2023-08-07T10:17:29;3.30;;;1.95;;
22632;SDS011;11483;55.828;37.488;2023-08-07T10:19:56;13.20;;;2.05;;
22632;SDS011;11483;55.828;37.488;2023-08-07T10:22:23;9.18;;;2.45;;
22632;SDS011;11483;55.828;37.488;2023-08-07T10:24:52;6.50;;;2.38;;
22632;SDS011;11483;55.828;37.488;2023-08-07T10:27:20;5.15;;;2.05;;
22632;SDS011;11483;55.828;37.488;2023-08-07T10:29:48;2.80;;;1.80;;
22632;SDS011;11483;55.828;37.488;2023-08-07T10:32:17;13.00;;;1.85;;
22632;SDS011;11483;55.828;37.488;2023-08-07T10:34:51;7.63;;;1.70;;
22632;SDS011;11483;55.828;37.488;2023-08-07T10:40:09;5.05;;;2.17;;
22632;SDS011;11483;55.828;37.488;2023-08-07T10:42:55;5.03;;;2.10;;
22632;SDS011;11483;55.828;37.488;2023-08-07T10:45:23;7.78;;;2.28;;
22632;SDS011;11483;55.828;37.488;2023-08-07T10:48:11;5.53;;;2.80;;
22632;SDS011;11483;55.828;37.488;2023-08-07T10:50:51;6.57;;;2.45;;
22632;SDS011;11483;55.828;37.488;2023-08-07T10:56:30;10.00;;;1.80;;
22632;SDS011;11483;55.828;37.488;2023-08-07T10:59:07;3.65;;;1.75;;
22632;SDS011;11483;55.828;37.488;2023-08-07T11:04:10;5.20;;;1.77;;
22632;SDS011;11483;55.828;37.488;2023-08-07T11:06:38;10.30;;;2.22;;
22632;SDS011;11483;55.828;37.488;2023-08-07T11:09:06;7.45;;;1.60;;
22632;SDS011;11483;55.828;37.488;2023-08-07T11:11:40;3.58;;;1.80;;
22632;SDS011;11483;55.828;37.488;2023-08-07T11:14:14;2.65;;;1.73;;
22632;SDS011;11483;55.828;37.488;2023-08-07T11:16:41;5.75;;;1.63;;
22632;SDS011;11483;55.828;37.488;2023-08-07T11:19:08;5.10;;;2.03;;
22632;SDS011;11483;55.828;37.488;2023-08-07T11:21:35;7.38;;;2.05;;
22632;SDS011;11483;55.828;37.488;2023-08-07T11:24:01;8.60;;;2.00;;
22632;SDS011;11483;55.828;37.488;2023-08-07T11:26:28;8.45;;;1.50;;
22632;SDS011;11483;55.828;37.488;2023-08-07T11:28:54;7.05;;;1.75;;
22632;SDS011;11483;55.828;37.488;2023-08-07T11:31:21;7.55;;;1.83;;
22632;SDS011;11483;55.828;37.488;2023-08-07T11:33:50;8.48;;;2.08;;
22632;SDS011;11483;55.828;37.488;2023-08-07T11:36:16;6.47;;;1.77;;
22632;SDS011;11483;55.828;37.488;2023-08-07T11:38:42;6.32;;;1.73;;
22632;SDS011;11483;55.828;37.488;2023-08-07T11:41:14;6.07;;;1.90;;
22632;SDS011;11483;55.828;37.488;2023-08-07T11:43:41;4.30;;;1.90;;
22632;SDS011;11483;55.828;37.488;2023-08-07T11:46:08;8.52;;;2.13;;
22632;SDS011;11483;55.828;37.488;2023-08-07T11:48:36;5.32;;;2.30;;
22632;SDS011;11483;55.828;37.488;2023-08-07T11:51:04;12.18;;;2.00;;
22632;SDS011;11483;55.828;37.488;2023-08-07T11:53:32;5.53;;;1.75;;
22632;SDS011;11483;55.828;37.488;2023-08-07T11:56:00;4.75;;;1.70;;
22632;SDS011;11483;55.828;37.488;2023-08-07T11:58:28;7.50;;;2.17;;
22632;SDS011;11483;55.828;37.488;2023-08-07T12:01:09;7.07;;;2.13;;
22632;SDS011;11483;55.828;37.488;2023-08-07T12:03:37;5.70;;;2.17;;
22632;SDS011;11483;55.828;37.488;2023-08-07T12:06:04;5.38;;;1.88;;
22632;SDS011;11483;55.828;37.488;2023-08-07T12:08:32;13.50;;;1.85;;
22632;SDS011;11483;55.828;37.488;2023-08-07T12:11:03;6.85;;;2.00;;
22632;SDS011;11483;55.828;37.488;2023-08-07T12:13:31;7.70;;;1.98;;
22632;SDS011;11483;55.828;37.488;2023-08-07T12:16:00;9.75;;;1.77;;
22632;SDS011;11483;55.828;37.488;2023-08-07T12:18:29;19.70;;;2.20;;
22632;SDS011;11483;55.828;37.488;2023-08-07T12:20:57;9.52;;;2.13;;
22632;SDS011;11483;55.828;37.488;2023-08-07T12:23:26;5.90;;;2.30;;
22632;SDS011;11483;55.828;37.488;2023-08-07T12:25:53;11.90;;;2.20;;
22632;SDS011;11483;55.828;37.488;2023-08-07T12:28:19;3.47;;;2.08;;
22632;SDS011;11483;55.828;37.488;2023-08-07T12:30:45;5.45;;;2.10;;
22632;SDS011;11483;55.828;37.488;2023-08-07T12:33:12;7.57;;;2.08;;
22632;SDS011;11483;55.828;37.488;2023-08-07T12:35:38;5.88;;;2.17;;
22632;SDS011;11483;55.828;37.488;2023-08-07T12:38:05;10.18;;;2.35;;
22632;SDS011;11483;55.828;37.488;2023-08-07T12:40:31;15.88;;;2.15;;
22632;SDS011;11483;55.828;37.488;2023-08-07T12:43:00;8.48;;;1.88;;
22632;SDS011;11483;55.828;37.488;2023-08-07T12:45:26;6.45;;;2.30;;
22632;SDS011;11483;55.828;37.488;2023-08-07T12:47:52;13.85;;;2.45;;
22632;SDS011;11483;55.828;37.488;2023-08-07T12:50:18;9.90;;;2.53;;
22632;SDS011;11483;55.828;37.488;2023-08-07T12:52:44;6.40;;;2.28;;
22632;SDS011;11483;55.828;37.488;2023-08-07T12:55:10;3.85;;;2.28;;
22632;SDS011;11483;55.828;37.488;2023-08-07T12:57:37;9.80;;;2.10;;
22632;SDS011;11483;55.828;37.488;2023-08-07T13:00:06;13.88;;;2.80;;
22632;SDS011;11483;55.828;37.488;2023-08-07T13:02:33;10.25;;;2.20;;
22632;SDS011;11483;55.828;37.488;2023-08-07T13:04:59;5.85;;;2.20;;
22632;SDS011;11483;55.828;37.488;2023-08-07T13:07:25;11.02;;;2.45;;
22632;SDS011;11483;55.828;37.488;2023-08-07T13:09:51;8.30;;;2.30;;
22632;SDS011;11483;55.828;37.488;2023-08-07T13:12:16;9.25;;;2.42;;
22632;SDS011;11483;55.828;37.488;2023-08-07T13:14:42;7.20;;;1.88;;
22632;SDS011;11483;55.828;37.488;2023-08-07T13:17:08;8.27;;;2.42;;
22632;SDS011;11483;55.828;37.488;2023-08-07T13:19:34;5.85;;;2.10;;
22632;SDS011;11483;55.828;37.488;2023-08-07T13:22:00;7.28;;;2.00;;
22632;SDS011;11483;55.828;37.488;2023-08-07T13:24:26;2.22;;;2.00;;
22632;SDS011;11483;55.828;37.488;2023-08-07T13:26:51;6.53;;;2.08;;
22632;SDS011;11483;55.828;37.488;2023-08-07T13:29:17;8.70;;;2.20;;
22632;SDS011;11483;55.828;37.488;2023-08-07T13:31:43;9.40;;;2.25;;
22632;SDS011;11483;55.828;37.488;2023-08-07T13:34:11;5.53;;;2.50;;
22632;SDS011;11483;55.828;37.488;2023-08-07T13:36:37;3.47;;;2.20;;
22632;SDS011;11483;55.828;37.488;2023-08-07T13:39:04;10.88;;;2.22;;
22632;SDS011;11483;55.828;37.488;2023-08-07T13:41:31;2.50;;;1.80;;
22632;SDS011;11483;55.828;37.488;2023-08-07T13:43:57;10.43;;;3.83;;
22632;SDS011;11483;55.828;37.488;2023-08-07T13:46:24;10.90;;;7.45;;
22632;SDS011;11483;55.828;37.488;2023-08-07T13:48:50;4.97;;;2.15;;
22632;SDS011;11483;55.828;37.488;2023-08-07T13:51:16;4.38;;;2.53;;
22632;SDS011;11483;55.828;37.488;2023-08-07T13:53:43;7.32;;;2.40;;
22632;SDS011;11483;55.828;37.488;2023-08-07T13:56:09;5.68;;;2.28;;
22632;SDS011;11483;55.828;37.488;2023-08-07T13:58:40;3.22;;;2.33;;
22632;SDS011;11483;55.828;37.488;2023-08-07T14:01:09;13.13;;;2.33;;
22632;SDS011;11483;55.828;37.488;2023-08-07T14:03:35;7.15;;;2.28;;
22632;SDS011;11483;55.828;37.488;2023-08-07T14:06:01;5.90;;;2.30;;
22632;SDS011;11483;55.828;37.488;2023-08-07T14:08:27;8.27;;;2.28;;
22632;SDS011;11483;55.828;37.488;2023-08-07T14:10:53;5.07;;;2.45;;
22632;SDS011;11483;55.828;37.488;2023-08-07T14:13:19;7.68;;;2.30;;
22632;SDS011;11483;55.828;37.488;2023-08-07T14:15:45;4.68;;;2.05;;
22632;SDS011;11483;55.828;37.488;2023-08-07T14:18:12;2.85;;;2.00;;
22632;SDS011;11483;55.828;37.488;2023-08-07T14:20:40;6.22;;;2.03;;
22632;SDS011;11483;55.828;37.488;2023-08-07T14:23:06;8.73;;;1.90;;
22632;SDS011;11483;55.828;37.488;2023-08-07T14:25:32;5.63;;;2.47;;
22632;SDS011;11483;55.828;37.488;2023-08-07T14:27:57;3.58;;;2.28;;
22632;SDS011;11483;55.828;37.488;2023-08-07T14:30:24;7.55;;;2.22;;
22632;SDS011;11483;55.828;37.488;2023-08-07T14:32:50;4.85;;;2.47;;
22632;SDS011;11483;55.828;37.488;2023-08-07T14:35:15;3.33;;;2.28;;
22632;SDS011;11483;55.828;37.488;2023-08-07T14:37:41;9.77;;;3.47;;
22632;SDS011;11483;55.828;37.488;2023-08-07T14:40:08;8.45;;;2.63;;
22632;SDS011;11483;55.828;37.488;2023-08-07T14:42:34;8.68;;;2.42;;
22632;SDS011;11483;55.828;37.488;2023-08-07T14:44:59;6.70;;;2.15;;
22632;SDS011;11483;55.828;37.488;2023-08-07T14:47:25;9.73;;;2.33;;